Time;durP1;ratioP1;P1;durP2;ratioP2;P2;SDS_P1;SDS_P2;PMS_P1;PMS_P2;Temp;Humidity;BMP_temperature;BMP_pressure;BME280_temperature;BME280_humidity;BME280_pressure;Samples;Min_cycle;Max_cycle;Signal;HPM_P1;HPM_P2
2022/12/02 00:00:20;;;;;;;31.10;18.15;;;;;;;5.04;72.91;100742.59;5098362;28;20032;-82
2022/12/02 00:02:45;;;;;;;33.95;19.35;;;;;;;5.01;72.41;100733.03;5099763;28;20550;-82
2022/12/02 00:05:13;;;;;;;35.88;19.55;;;;;;;4.99;72.46;100732.41;5101882;28;20020;-82
2022/12/02 00:07:39;;;;;;;34.45;16.92;;;;;;;5.07;73.08;100738.63;5097456;28;20031;-82
2022/12/02 00:10:21;;;;;;;36.75;16.90;;;;;;;4.82;72.50;100734.59;5101229;28;20049;-81
2022/12/02 00:12:46;;;;;;;39.47;20.70;;;;;;;4.96;72.90;100727.41;5099721;28;20101;-82
2022/12/02 00:15:41;;;;;;;33.67;17.53;;;;;;;5.14;72.18;100726.00;5100533;28;20052;-82
2022/12/02 00:18:07;;;;;;;;;;;;;;;5.15;72.14;100722.22;5099746;28;20754;-82
2022/12/02 00:20:33;;;;;;;31.35;18.67;;;;;;;5.05;72.22;100727.19;5098807;28;19916;-84
2022/12/02 00:22:58;;;;;;;30.77;16.47;;;;;;;5.05;72.70;100713.69;5101673;28;20376;-84
2022/12/02 00:25:23;;;;;;;30.27;18.57;;;;;;;5.04;72.09;100712.03;5102797;28;20320;-84
2022/12/02 00:27:48;;;;;;;39.57;18.63;;;;;;;4.96;72.85;100707.66;5101595;28;20275;-83
2022/12/02 00:30:15;;;;;;;35.73;17.47;;;;;;;4.96;72.43;100710.34;5100517;28;20326;-82
2022/12/02 00:32:40;;;;;;;32.67;19.00;;;;;;;4.95;72.88;100708.66;5100372;28;20606;-83
2022/12/02 00:35:05;;;;;;;32.33;18.10;;;;;;;4.87;72.06;100709.69;5099385;28;20077;-83
2022/12/02 00:37:31;;;;;;;35.88;18.00;;;;;;;4.96;73.00;100708.50;5098182;28;20271;-82
2022/12/02 00:39:56;;;;;;;32.88;15.27;;;;;;;4.94;72.46;100704.31;5100668;28;20514;-84
2022/12/02 00:42:21;;;;;;;25.47;14.80;;;;;;;4.99;73.11;100702.66;5098364;28;20036;-83
2022/12/02 00:47:30;;;;;;;36.25;16.35;;;;;;;4.84;73.36;100699.31;5100702;28;20266;-82
2022/12/02 00:49:55;;;;;;;33.33;16.57;;;;;;;5.01;72.51;100689.78;5100349;28;20476;-83
2022/12/02 00:52:21;;;;;;;28.70;17.00;;;;;;;5.15;72.60;100687.09;5100331;28;20252;-83
2022/12/02 00:54:46;;;;;;;31.65;17.13;;;;;;;4.84;72.47;100694.72;5101141;28;20280;-82
2022/12/02 00:57:11;;;;;;;27.27;14.70;;;;;;;5.02;72.82;100690.63;5098988;28;20549;-83
2022/12/02 00:59:36;;;;;;;34.70;17.43;;;;;;;4.97;73.11;100683.13;5100205;28;20031;-83
2022/12/02 01:02:02;;;;;;;31.92;17.90;;;;;;;5.11;73.09;100683.13;5102084;28;20260;-82
2022/12/02 01:04:27;;;;;;;31.05;17.17;;;;;;;4.86;73.38;100686.41;5100861;28;20561;-83
2022/12/02 01:06:52;;;;;;;37.63;17.90;;;;;;;5.00;73.13;100673.78;5100957;28;20032;-83
2022/12/02 01:09:17;;;;;;;31.07;18.07;;;;;;;4.89;72.62;100669.78;5100056;28;20291;-82
2022/12/02 01:11:43;;;;;;;40.23;18.67;;;;;;;5.01;72.86;100668.16;5101278;28;20268;-83
2022/12/02 01:14:08;;;;;;;37.55;19.90;;;;;;;5.10;73.09;100673.38;5100434;28;20276;-82
2022/12/02 01:16:33;;;;;;;40.08;20.25;;;;;;;4.99;73.43;100672.94;5101354;28;20063;-83
2022/12/02 01:18:59;;;;;;;46.07;20.27;;;;;;;5.08;73.02;100670.03;5101884;28;20035;-83
2022/12/02 01:21:24;;;;;;;35.67;19.52;;;;;;;4.99;72.79;100669.38;5100744;28;20737;-82
2022/12/02 01:23:49;;;;;;;35.23;16.47;;;;;;;4.94;73.29;100670.03;5102016;28;20031;-82
2022/12/02 01:26:14;;;;;;;35.20;19.95;;;;;;;5.09;73.11;100668.97;5097664;28;20751;-83
2022/12/02 01:28:40;;;;;;;34.90;19.75;;;;;;;5.11;73.11;100673.16;5100549;28;20039;-83
2022/12/02 01:31:05;;;;;;;36.95;20.10;;;;;;;5.04;73.28;100677.72;5100277;28;20631;-83
2022/12/02 01:33:30;;;;;;;36.08;18.02;;;;;;;5.07;73.56;100671.06;5100470;28;20065;-83
2022/12/02 01:35:55;;;;;;;43.97;21.87;;;;;;;4.88;73.50;100679.75;5100697;28;20495;-82
2022/12/02 01:38:21;;;;;;;37.10;19.57;;;;;;;4.96;73.74;100681.47;5100199;28;20252;-83
2022/12/02 01:40:46;;;;;;;41.67;21.10;;;;;;;4.89;74.07;100680.59;5100994;28;20260;-83
2022/12/02 01:43:11;;;;;;;42.13;24.45;;;;;;;4.99;74.32;100677.50;5101511;28;20637;-83
2022/12/02 01:45:37;;;;;;;41.80;25.20;;;;;;;4.95;74.46;100668.97;5099602;28;20028;-82
2022/12/02 01:48:03;;;;;;;42.90;19.90;;;;;;;5.09;73.52;100668.97;5100870;28;20047;-83
2022/12/02 01:50:31;;;;;;;40.60;20.13;;;;;;;5.07;74.31;100677.31;5101539;28;20028;-83
2022/12/02 01:52:56;;;;;;;34.25;19.80;;;;;;;5.07;74.15;100669.19;5099501;28;20039;-83
2022/12/02 01:55:24;;;;;;;42.60;21.98;;;;;;;4.98;73.43;100673.13;5099726;28;20035;-83
2022/12/02 01:57:50;;;;;;;40.17;21.92;;;;;;;4.99;74.63;100670.22;5100293;28;20898;-82
2022/12/02 02:00:16;;;;;;;39.90;20.10;;;;;;;5.12;73.77;100660.47;5099061;28;20023;-83
2022/12/02 02:02:41;;;;;;;43.38;20.52;;;;;;;4.95;74.21;100668.97;5101124;28;20036;-83
2022/12/02 02:05:12;;;;;;;40.83;21.17;;;;;;;4.83;74.54;100668.75;5100303;28;20061;-83
2022/12/02 02:07:39;;;;;;;47.33;23.88;;;;;;;5.03;74.11;100670.63;5098825;28;20067;-83
2022/12/02 02:10:06;;;;;;;34.13;18.98;;;;;;;4.84;74.06;100672.28;5101277;28;20027;-83
2022/12/02 02:12:32;;;;;;;39.97;21.40;;;;;;;4.96;74.18;100665.25;5099451;28;20059;-83
2022/12/02 02:14:57;;;;;;;50.17;24.63;;;;;;;5.04;74.40;100661.50;5099219;28;20035;-83
2022/12/02 02:17:23;;;;;;;41.45;21.00;;;;;;;5.04;74.43;100664.22;5099683;28;20028;-83
2022/12/02 02:19:49;;;;;;;42.08;21.52;;;;;;;4.86;74.93;100670.22;5099571;28;20481;-83
2022/12/02 02:22:30;;;;;;;44.28;20.13;;;;;;;5.08;74.13;100661.94;5099680;28;20032;-82
2022/12/02 02:24:55;;;;;;;36.63;20.08;;;;;;;5.21;74.19;100667.34;5100375;28;20027;-83
2022/12/02 02:27:20;;;;;;;39.70;19.87;;;;;;;5.01;73.94;100657.34;5097958;28;20193;-83
2022/12/02 02:29:46;;;;;;;47.90;23.30;;;;;;;5.08;74.61;100653.81;5099479;28;20313;-83
2022/12/02 02:32:11;;;;;;;45.25;23.75;;;;;;;5.01;74.35;100651.94;5100188;28;20526;-83
2022/12/02 02:34:36;;;;;;;37.72;20.35;;;;;;;5.12;74.54;100658.63;5100653;28;20449;-83
2022/12/02 02:37:02;;;;;;;42.65;19.55;;;;;;;4.99;74.39;100656.72;5099149;28;20035;-83
2022/12/02 02:39:28;;;;;;;46.15;23.55;;;;;;;4.96;74.80;100654.44;5100785;28;20411;-82
2022/12/02 02:41:54;;;;;;;44.58;21.95;;;;;;;4.91;75.39;100646.09;5100046;28;20036;-83
2022/12/02 02:44:20;;;;;;;43.25;23.10;;;;;;;5.07;74.85;100639.47;5099182;28;20032;-83
2022/12/02 02:46:45;;;;;;;40.15;21.10;;;;;;;5.17;74.40;100644.44;5100071;28;20031;-82
2022/12/02 02:49:11;;;;;;;44.92;23.10;;;;;;;5.14;74.62;100634.06;5099662;28;20473;-83
2022/12/02 02:51:36;;;;;;;53.20;22.83;;;;;;;5.02;74.80;100625.75;5098854;28;20464;-82
2022/12/02 02:54:02;;;;;;;44.83;22.60;;;;;;;4.89;75.44;100626.53;5099173;28;20054;-82
2022/12/02 02:56:27;;;;;;;49.42;24.58;;;;;;;4.95;75.10;100625.72;5097663;28;20083;-82
2022/12/02 02:58:53;;;;;;;38.95;22.45;;;;;;;5.16;74.97;100631.16;5098412;28;20322;-83
2022/12/02 03:01:28;;;;;;;43.22;21.75;;;;;;;5.11;74.35;100624.50;5098158;28;20433;-82
2022/12/02 03:03:59;;;;;;;45.60;25.38;;;;;;;5.05;74.36;100624.47;5097364;28;20051;-82
2022/12/02 03:06:26;;;;;;;37.15;20.17;;;;;;;5.08;74.22;100618.66;5098156;28;20085;-83
2022/12/02 03:08:53;;;;;;;43.45;22.50;;;;;;;4.93;75.32;100614.28;5097843;28;20085;-83
2022/12/02 03:11:18;;;;;;;39.88;18.92;;;;;;;4.77;74.99;100613.66;5099656;28;20016;-82
2022/12/02 03:13:47;;;;;;;37.58;18.23;;;;;;;4.65;76.25;100617.97;5099098;28;20105;-82
2022/12/02 03:16:14;;;;;;;44.15;26.67;;;;;;;4.92;75.75;100611.78;5097090;28;20043;-83
2022/12/02 03:18:42;;;;;;;40.05;19.88;;;;;;;4.86;75.33;100605.34;5099809;28;20032;-82
2022/12/02 03:21:08;;;;;;;44.95;20.98;;;;;;;4.96;74.70;100600.38;5099497;28;20493;-82
2022/12/02 03:23:34;;;;;;;44.38;22.67;;;;;;;5.07;74.90;100600.78;5098220;28;20028;-82
2022/12/02 03:26:00;;;;;;;40.92;22.02;;;;;;;5.06;74.60;100599.97;5097781;28;20063;-82
2022/12/02 03:28:26;;;;;;;39.08;21.20;;;;;;;4.99;74.87;100594.53;5098697;28;20301;-83
2022/12/02 03:30:51;;;;;;;44.00;21.30;;;;;;;5.01;75.50;100597.88;5099805;28;20249;-82
2022/12/02 03:33:17;;;;;;;34.00;19.30;;;;;;;4.86;75.77;100599.94;5098143;28;20070;-83
2022/12/02 03:35:43;;;;;;;36.42;22.67;;;;;;;4.82;75.60;100598.69;5101286;28;20031;-82
2022/12/02 03:38:08;;;;;;;41.78;22.38;;;;;;;4.95;75.85;100597.84;5102113;28;20027;-83
2022/12/02 03:40:33;;;;;;;43.70;20.25;;;;;;;4.63;76.43;100598.44;5103891;28;20028;-82
2022/12/02 03:42:59;;;;;;;46.10;24.00;;;;;;;4.86;76.50;100599.94;5103265;28;20404;-82
2022/12/02 03:45:24;;;;;;;47.42;20.98;;;;;;;5.10;75.05;100598.50;5103642;28;20075;-82
2022/12/02 03:47:50;;;;;;;43.55;22.23;;;;;;;5.06;75.28;100599.97;5102277;28;20070;-83
2022/12/02 03:50:15;;;;;;;43.47;23.20;;;;;;;4.99;75.25;100594.53;5102180;28;20119;-82
2022/12/02 03:52:41;;;;;;;43.03;22.10;;;;;;;4.99;75.86;100591.00;5100826;28;20043;-83
2022/12/02 03:55:07;;;;;;;43.15;23.25;;;;;;;5.00;75.46;100584.56;5103002;28;20433;-83
2022/12/02 03:57:33;;;;;;;49.80;23.15;;;;;;;4.75;75.52;100588.72;5102204;28;20114;-83
2022/12/02 03:59:59;;;;;;;40.22;21.35;;;;;;;4.88;75.93;100587.06;5104044;28;20036;-83
2022/12/02 04:02:24;;;;;;;42.60;22.10;;;;;;;4.96;75.57;100584.16;5102707;28;20040;-83
2022/12/02 04:04:49;;;;;;;48.53;21.15;;;;;;;4.78;76.35;100574.78;5101963;28;20047;-83
2022/12/02 04:07:14;;;;;;;44.53;23.45;;;;;;;4.94;75.59;100572.72;5100388;28;20044;-83
2022/12/02 04:09:40;;;;;;;53.00;21.60;;;;;;;4.89;75.53;100572.50;5101727;28;20835;-82
2022/12/02 04:12:05;;;;;;;45.60;19.77;;;;;;;4.76;76.68;100566.03;5102821;28;20267;-83
2022/12/02 04:14:30;;;;;;;32.03;19.37;;;;;;;4.90;76.13;100574.19;5102451;28;20082;-83
2022/12/02 04:16:55;;;;;;;41.28;21.05;;;;;;;4.92;75.51;100564.00;5103537;28;20264;-83
2022/12/02 04:19:21;;;;;;;40.17;19.80;;;;;;;4.60;76.58;100559.16;5102936;28;20385;-83
2022/12/02 04:21:46;;;;;;;41.93;21.20;;;;;;;4.85;76.26;100557.72;5101745;28;20110;-83
2022/12/02 04:24:11;;;;;;;63.37;23.67;;;;;;;4.73;76.36;100558.34;5100847;28;20271;-82
2022/12/02 04:26:36;;;;;;;43.10;22.67;;;;;;;4.91;76.53;100565.00;5099897;28;20294;-82
2022/12/02 04:29:02;;;;;;;42.17;22.23;;;;;;;5.03;76.08;100559.81;5102014;27;20032;-83
2022/12/02 04:31:27;;;;;;;43.65;23.70;;;;;;;4.82;76.88;100550.06;5101120;28;20032;-83
2022/12/02 04:33:52;;;;;;;40.80;23.42;;;;;;;4.98;76.72;100555.03;5102856;28;20035;-83
2022/12/02 04:36:17;;;;;;;44.73;21.73;;;;;;;4.86;77.13;100556.72;5100373;28;20032;-83
2022/12/02 04:38:43;;;;;;;49.17;24.63;;;;;;;4.81;77.04;100567.28;5100306;28;20252;-83
2022/12/02 04:41:08;;;;;;;57.20;28.07;;;;;;;4.97;76.92;100564.19;5100952;28;21046;-83
2022/12/02 04:43:33;;;;;;;50.00;25.98;;;;;;;4.79;77.58;100562.94;5102773;28;20283;-83
2022/12/02 04:45:58;;;;;;;41.17;23.77;;;;;;;4.89;77.76;100562.53;5100158;28;20496;-83
2022/12/02 04:48:24;;;;;;;45.13;23.33;;;;;;;4.92;77.67;100555.03;5099890;28;20035;-81
2022/12/02 04:50:49;;;;;;;44.63;22.83;;;;;;;4.94;78.02;100552.97;5101870;28;20256;-82
2022/12/02 04:53:14;;;;;;;54.42;25.88;;;;;;;4.62;78.09;100554.38;5100945;28;20024;-83
2022/12/02 04:55:42;;;;;;;59.05;23.50;;;;;;;4.65;79.10;100545.03;5100268;28;20492;-83
2022/12/02 04:58:07;;;;;;;55.50;23.35;;;;;;;4.66;78.61;100562.91;5101474;28;20118;-83
2022/12/02 05:00:32;;;;;;;51.08;24.33;;;;;;;4.66;79.27;100561.03;5102072;28;20229;-83
2022/12/02 05:02:58;;;;;;;61.20;27.97;;;;;;;4.66;78.65;100557.50;5101330;28;20131;-83
2022/12/02 05:05:23;;;;;;;46.92;22.67;;;;;;;4.67;79.66;100553.78;5100949;28;20268;-83
2022/12/02 05:07:48;;;;;;;48.87;24.30;;;;;;;4.84;78.72;100547.97;5101722;28;20040;-83
2022/12/02 05:10:14;;;;;;;47.57;22.73;;;;;;;4.78;78.92;100541.50;5099912;28;20264;-82
2022/12/02 05:12:39;;;;;;;54.38;24.38;;;;;;;4.79;79.78;100541.31;5100692;28;20371;-82
2022/12/02 05:15:05;;;;;;;51.88;25.42;;;;;;;4.86;79.54;100537.78;5100460;28;20412;-83
2022/12/02 05:17:30;;;;;;;52.65;27.38;;;;;;;4.74;78.33;100537.59;5098793;28;20036;-83
2022/12/02 05:19:55;;;;;;;49.78;23.25;;;;;;;4.57;79.61;100539.84;5101112;28;20072;-82
2022/12/02 05:22:21;;;;;;;43.35;20.25;;;;;;;4.72;78.83;100535.06;5099823;28;20035;-82
2022/12/02 05:24:47;;;;;;;55.43;25.73;;;;;;;4.51;79.91;100534.22;5101194;28;20047;-82
2022/12/02 05:27:12;;;;;;;49.30;24.73;;;;;;;4.72;78.78;100535.06;5099410;28;20268;-82
2022/12/02 05:29:38;;;;;;;44.78;24.27;;;;;;;4.81;77.89;100526.75;5100796;28;20047;-83
2022/12/02 05:32:03;;;;;;;51.47;27.52;;;;;;;4.77;78.73;100527.19;5101740;28;20570;-83
2022/12/02 05:34:28;;;;;;;51.15;23.67;;;;;;;4.92;78.10;100522.63;5100736;28;20559;-82
2022/12/02 05:36:54;;;;;;;55.35;26.77;;;;;;;4.83;78.57;100525.53;5101757;28;20054;-83
2022/12/02 05:39:19;;;;;;;51.53;23.27;;;;;;;4.83;78.17;100524.69;5100170;28;20119;-83
2022/12/02 05:41:46;;;;;;;43.40;25.10;;;;;;;4.91;78.52;100521.78;5101924;28;20031;-83
2022/12/02 05:44:23;;;;;;;53.38;24.83;;;;;;;4.84;77.76;100521.78;5101239;28;20484;-83
2022/12/02 05:46:49;;;;;;;60.88;28.75;;;;;;;4.93;78.65;100525.09;5099653;28;20024;-83
2022/12/02 05:49:22;;;;;;;47.63;24.45;;;;;;;4.92;78.19;100522.63;5100311;28;20051;-83
2022/12/02 05:52:01;;;;;;;64.75;29.95;;;;;;;4.84;77.93;100527.16;5100821;28;20210;-83
2022/12/02 05:54:27;;;;;;;58.33;26.67;;;;;;;4.84;78.07;100524.47;5099011;28;20481;-82
2022/12/02 05:56:55;;;;;;;50.03;26.08;;;;;;;4.78;78.65;100522.59;5096478;28;20089;-83
2022/12/02 05:59:21;;;;;;;55.08;28.17;;;;;;;4.64;78.66;100522.59;5100399;28;20123;-82
2022/12/02 06:01:49;;;;;;;58.63;31.25;;;;;;;4.84;78.25;100529.06;5099591;28;20100;-82
2022/12/02 06:04:18;;;;;;;49.72;28.95;;;;;;;4.66;78.96;100525.09;5099002;28;20036;-83
2022/12/02 06:06:43;;;;;;;60.33;26.58;;;;;;;4.68;79.40;100528.41;5100321;28;20040;-83
2022/12/02 06:09:18;;;;;;;57.28;28.52;;;;;;;4.51;79.24;100528.00;5099979;28;20035;-83
2022/12/02 06:11:45;;;;;;;58.80;29.83;;;;;;;4.61;79.38;100530.28;5098580;28;20039;-83
2022/12/02 06:14:15;;;;;;;63.20;29.02;;;;;;;4.47;79.57;100530.28;5099374;28;20048;-83
2022/12/02 06:16:44;;;;;;;50.97;26.20;;;;;;;4.54;78.98;100531.09;5101250;28;20035;-82
2022/12/02 06:19:21;;;;;;;62.53;28.23;;;;;;;4.44;78.85;100533.38;5099849;28;20430;-83
2022/12/02 06:21:46;;;;;;;55.50;28.15;;;;;;;4.69;78.75;100527.38;5100333;28;20103;-82
2022/12/02 06:24:12;;;;;;;50.08;26.52;;;;;;;4.79;78.16;100524.28;5099804;28;20120;-82
2022/12/02 06:26:37;;;;;;;59.65;27.17;;;;;;;4.71;77.94;100528.00;5098156;28;20546;-82
2022/12/02 06:29:03;;;;;;;48.97;26.23;;;;;;;4.95;77.31;100533.84;5100882;28;20060;-83
2022/12/02 06:31:36;;;;;;;51.38;26.27;;;;;;;4.73;77.81;100523.25;5098528;28;20276;-82
2022/12/02 06:34:20;;;;;;;66.35;32.47;;;;;;;4.63;78.27;100537.16;5097124;28;20055;-83
2022/12/02 06:36:45;;;;;;;64.57;30.63;;;;;;;4.72;78.06;100534.25;5098519;28;20514;-83
2022/12/02 06:39:20;;;;;;;56.20;26.65;;;;;;;4.86;77.73;100535.09;5098140;28;20111;-83
2022/12/02 06:41:46;;;;;;;54.53;25.23;;;;;;;4.67;78.13;100537.56;5097886;28;20039;-83
2022/12/02 06:47:32;;;;;;;53.17;28.52;;;;;;;4.58;78.38;100538.81;5099630;28;20039;-82
2022/12/02 06:50:19;;;;;;;61.15;26.15;;;;;;;4.64;78.42;100533.41;5098888;28;20031;-83
2022/12/02 06:52:45;;;;;;;68.47;31.20;;;;;;;4.64;78.69;100535.25;5099376;28;20028;-83
2022/12/02 06:55:28;;;;;;;55.42;26.65;;;;;;;4.56;78.42;100536.28;5097882;28;20087;-83
2022/12/02 06:57:58;;;;;;;49.17;27.05;;;;;;;4.61;78.46;100531.13;5098507;28;20035;-82
2022/12/02 07:00:23;;;;;;;53.00;27.65;;;;;;;4.57;78.70;100534.44;5097751;28;20036;-83
2022/12/02 07:02:48;;;;;;;54.22;26.48;;;;;;;4.78;78.08;100536.09;5099025;28;20073;-83
2022/12/02 07:05:20;;;;;;;48.25;25.05;;;;;;;4.54;78.27;100539.22;5099865;28;20058;-83
2022/12/02 07:07:45;;;;;;;47.58;21.52;;;;;;;4.46;78.84;100536.69;5093244;28;20032;-83
2022/12/02 07:10:26;;;;;;;45.38;22.27;;;;;;;4.61;77.65;100533.00;5097055;28;20032;-83
2022/12/02 07:12:52;;;;;;;47.55;23.83;;;;;;;4.68;77.41;100528.41;5099361;28;20048;-83
2022/12/02 07:15:29;;;;;;;51.20;22.02;;;;;;;4.67;78.08;100526.75;5099596;28;20223;-85
2022/12/02 07:18:08;;;;;;;45.63;24.58;;;;;;;4.71;77.90;100532.56;5099914;28;20028;-83
2022/12/02 07:20:37;;;;;;;52.38;24.45;;;;;;;4.67;77.79;100532.16;5095706;28;20125;-83
2022/12/02 07:23:21;;;;;;;42.38;21.23;;;;;;;4.68;76.93;100533.81;5098517;28;20412;-83
2022/12/02 07:25:51;;;;;;;40.42;21.52;;;;;;;4.57;77.90;100526.34;5098038;28;20040;-83
2022/12/02 07:28:32;;;;;;;46.70;24.65;;;;;;;4.64;76.91;100525.28;5098411;28;20107;-83
2022/12/02 07:31:11;;;;;;;36.28;20.27;;;;;;;4.72;76.86;100528.84;5098972;28;20113;-82
2022/12/02 07:33:36;;;;;;;42.00;21.30;;;;;;;4.74;76.67;100532.19;5098832;28;20031;-83
2022/12/02 07:36:02;;;;;;;39.85;21.45;;;;;;;4.43;77.73;100532.53;5098325;28;20028;-82
2022/12/02 07:38:27;;;;;;;40.97;21.90;;;;;;;4.63;77.40;100537.16;5098945;28;20523;-83
2022/12/02 07:40:52;;;;;;;39.77;19.93;;;;;;;4.77;77.30;100535.28;5098357;28;20031;-84
2022/12/02 07:43:17;;;;;;;41.38;22.10;;;;;;;4.50;77.19;100532.56;5098427;28;20251;-84
2022/12/02 07:45:43;;;;;;;37.43;16.93;;;;;;;4.70;76.92;100523.63;5096515;28;20142;-84
2022/12/02 07:48:08;;;;;;;37.13;20.13;;;;;;;4.69;76.20;100524.69;5098076;28;20270;-84
2022/12/02 07:50:33;;;;;;;40.17;18.60;;;;;;;4.66;76.43;100523.22;5097849;28;20114;-84
2022/12/02 07:52:59;;;;;;;33.47;18.80;;;;;;;4.70;76.33;100523.63;5098646;28;20198;-84
2022/12/02 07:55:24;;;;;;;33.05;17.80;;;;;;;4.46;76.80;100523.19;5097810;28;20036;-84
2022/12/02 07:57:49;;;;;;;36.55;19.17;;;;;;;4.63;76.56;100526.34;5098041;28;20031;-84
2022/12/02 08:00:16;;;;;;;34.63;18.00;;;;;;;4.70;76.34;100526.34;5097902;28;20032;-84
2022/12/02 08:02:41;;;;;;;27.73;16.60;;;;;;;4.63;76.97;100520.09;5097445;28;20260;-83
2022/12/02 08:05:07;;;;;;;35.60;18.63;;;;;;;4.69;76.22;100523.84;5099388;28;20031;-83
2022/12/02 08:07:32;;;;;;;45.42;20.35;;;;;;;4.70;76.34;100525.53;5095056;28;20463;-84
2022/12/02 08:09:57;;;;;;;35.53;19.03;;;;;;;4.82;75.94;100523.03;5096482;28;20032;-86
2022/12/02 08:12:23;;;;;;;32.00;18.92;;;;;;;4.79;76.64;100522.41;5098656;28;20280;-82
2022/12/02 08:14:48;;;;;;;29.25;16.58;;;;;;;4.84;76.18;100520.97;5099269;28;20106;-84
2022/12/02 08:17:13;;;;;;;32.63;18.58;;;;;;;4.55;77.12;100524.69;5100117;28;20028;-81
2022/12/02 08:19:40;;;;;;;33.05;18.80;;;;;;;4.71;76.56;100516.38;5098588;28;20477;-83
2022/12/02 08:22:05;;;;;;;30.13;15.52;;;;;;;4.81;76.13;100519.50;5101511;28;20255;-83
2022/12/02 08:24:31;;;;;;;36.53;18.70;;;;;;;4.81;76.38;100516.78;5102047;28;20101;-83
2022/12/02 08:26:56;;;;;;;30.43;17.23;;;;;;;4.60;76.35;100515.09;5101142;28;20032;-83
2022/12/02 08:29:21;;;;;;;41.03;21.53;;;;;;;4.67;76.30;100515.97;5102754;28;20259;-84
2022/12/02 08:31:46;;;;;;;36.22;18.92;;;;;;;4.77;76.28;100516.38;5102875;28;20251;-85
2022/12/02 08:34:12;;;;;;;37.93;18.10;;;;;;;4.50;77.31;100521.75;5102479;28;20423;-84
2022/12/02 08:36:37;;;;;;;31.90;17.65;;;;;;;4.45;76.37;100513.44;5101748;28;20248;-85
2022/12/02 08:39:04;;;;;;;36.53;17.03;;;;;;;4.72;75.99;100520.75;5101653;28;20477;-84
2022/12/02 08:41:31;;;;;;;34.63;16.88;;;;;;;4.78;75.70;100519.91;5101584;28;20260;-85
2022/12/02 08:43:58;;;;;;;33.42;16.60;;;;;;;4.76;75.78;100524.69;5103812;28;20035;-83
2022/12/02 08:46:23;;;;;;;27.58;15.05;;;;;;;4.88;75.81;100514.09;5101356;28;20024;-81
2022/12/02 08:48:48;;;;;;;28.63;16.48;;;;;;;4.90;74.84;100510.13;5101094;28;20116;-83
2022/12/02 08:51:13;;;;;;;35.27;18.10;;;;;;;4.83;74.82;100519.28;5103140;28;20052;-84
2022/12/02 08:53:39;;;;;;;24.03;14.90;;;;;;;4.79;75.06;100518.88;5101593;28;20280;-84
2022/12/02 08:56:04;;;;;;;32.95;13.88;;;;;;;4.77;75.51;100516.38;5101675;28;20271;-84
2022/12/02 08:58:29;;;;;;;30.38;14.52;;;;;;;4.79;75.43;100518.88;5102488;28;20023;-85
2022/12/02 09:00:55;;;;;;;27.33;14.57;;;;;;;4.73;75.13;100525.94;5102214;28;20505;-85
2022/12/02 09:03:20;;;;;;;33.67;17.70;;;;;;;4.49;75.38;100528.19;5100128;28;20046;-84
2022/12/02 09:05:45;;;;;;;23.30;14.03;;;;;;;4.58;75.83;100528.81;5099131;28;20474;-81
2022/12/02 09:08:10;;;;;;;31.95;16.45;;;;;;;4.82;74.96;100528.44;5100457;28;20576;-84
2022/12/02 09:10:36;;;;;;;27.35;15.70;;;;;;;4.71;75.06;100532.56;5102011;28;20023;-85
2022/12/02 09:13:01;;;;;;;28.65;16.42;;;;;;;4.80;74.55;100528.63;5101245;28;20040;-82
2022/12/02 09:15:26;;;;;;;26.75;15.63;;;;;;;4.81;74.38;100538.41;5101421;28;20029;-83
2022/12/02 09:17:52;;;;;;;31.98;15.43;;;;;;;4.44;75.21;100531.50;5100984;28;20038;-83
2022/12/02 09:20:17;;;;;;;26.75;15.57;;;;;;;4.58;75.50;100536.13;5102010;28;20527;-84
2022/12/02 09:22:46;;;;;;;25.10;13.05;;;;;;;4.64;75.43;100537.97;5100560;28;20022;-83
2022/12/02 09:25:12;;;;;;;25.95;14.88;;;;;;;4.39;75.53;100536.72;5100311;28;20024;-84
2022/12/02 09:27:38;;;;;;;29.40;15.15;;;;;;;4.46;75.61;100536.69;5097809;28;20031;-84
2022/12/02 09:30:04;;;;;;;28.40;13.95;;;;;;;4.56;74.73;100541.69;5101959;28;20369;-84
2022/12/02 09:32:29;;;;;;;28.30;13.45;;;;;;;4.53;74.70;100537.56;5099770;28;20047;-83
2022/12/02 09:34:55;;;;;;;32.92;15.32;;;;;;;4.43;74.89;100532.53;5099681;28;20036;-83
2022/12/02 09:37:20;;;;;;;26.73;15.18;;;;;;;4.55;74.50;100537.34;5100427;28;20568;-85
2022/12/02 09:39:47;;;;;;;32.85;14.20;;;;;;;4.69;74.31;100535.50;5099635;28;20032;-84
2022/12/02 09:42:13;;;;;;;24.98;15.57;;;;;;;4.66;74.41;100525.94;5099785;28;20036;-83
2022/12/02 09:44:40;;;;;;;22.38;13.68;;;;;;;4.60;74.75;100532.16;5099594;28;20089;-84
2022/12/02 09:47:05;;;;;;;23.58;13.52;;;;;;;4.45;74.92;100535.06;5098873;28;20039;-84
2022/12/02 09:49:31;;;;;;;31.13;15.10;;;;;;;4.41;75.12;100523.81;5099584;28;20040;-84
2022/12/02 09:52:00;;;;;;;32.33;14.48;;;;;;;4.27;75.17;100522.94;5099534;28;20034;-84
2022/12/02 09:54:26;;;;;;;29.00;15.85;;;;;;;4.45;75.94;100529.66;5101100;28;20484;-84
2022/12/02 09:56:52;;;;;;;30.63;16.95;;;;;;;4.36;75.69;100517.34;5098035;28;20052;-84
2022/12/02 09:59:17;;;;;;;27.30;14.80;;;;;;;4.42;75.53;100524.66;5100221;28;20050;-84
2022/12/02 10:01:46;;;;;;;27.83;15.35;;;;;;;4.50;75.23;100523.63;5100705;28;20011;-83
2022/12/02 10:04:15;;;;;;;26.00;13.73;;;;;;;4.37;75.32;100522.59;5099765;28;20529;-83
2022/12/02 10:06:41;;;;;;;26.50;15.20;;;;;;;4.62;74.93;100529.25;5100324;28;20038;-82
2022/12/02 10:09:13;;;;;;;29.75;16.33;;;;;;;4.46;74.54;100525.91;5098011;28;20031;-83
2022/12/02 10:11:39;;;;;;;33.55;18.30;;;;;;;4.26;75.15;100531.25;5098781;28;20044;-82
2022/12/02 10:14:05;;;;;;;26.33;14.45;;;;;;;4.57;74.66;100526.34;5100005;28;20396;-81
2022/12/02 10:16:32;;;;;;;25.90;14.15;;;;;;;4.63;74.74;100528.22;5101000;28;20069;-81
2022/12/02 10:19:03;;;;;;;27.65;14.52;;;;;;;4.71;74.82;100527.19;5101581;28;20413;-83
2022/12/02 10:21:29;;;;;;;33.83;14.55;;;;;;;4.67;74.59;100529.47;5100671;28;20058;-83
2022/12/02 10:24:03;;;;;;;25.85;13.57;;;;;;;4.42;75.02;100527.34;5098323;28;20081;-84
2022/12/02 10:26:48;;;;;;;35.63;17.00;;;;;;;4.51;74.17;100531.53;5098869;28;20016;-83
2022/12/02 10:29:15;;;;;;;;;;;;;;;4.14;75.50;100517.53;5098891;28;20040;-84
2022/12/02 10:31:52;;;;;;;27.90;15.30;;;;;;;4.39;74.64;100520.50;5095755;28;19911;-84
2022/12/02 10:34:20;;;;;;;32.42;15.93;;;;;;;4.46;74.65;100516.97;5102142;28;20435;-84
2022/12/02 10:36:45;;;;;;;29.73;16.33;;;;;;;4.51;74.64;100522.59;5097757;28;20365;-84
2022/12/02 10:39:20;;;;;;;23.70;14.90;;;;;;;4.69;74.37;100519.28;5098650;28;20337;-84
2022/12/02 10:41:46;;;;;;;34.80;15.95;;;;;;;4.57;74.61;100520.94;5097322;28;20044;-84
2022/12/02 10:44:14;;;;;;;27.02;15.43;;;;;;;4.64;74.18;100521.75;5099327;28;20407;-85
2022/12/02 10:46:40;;;;;;;30.05;19.55;;;;;;;4.75;74.03;100517.63;5097521;28;20028;-85
2022/12/02 10:49:26;;;;;;;31.60;16.83;;;;;;;4.58;73.59;100517.22;5099043;28;20038;-84
2022/12/02 10:51:53;;;;;;;30.17;21.42;;;;;;;4.78;73.14;100523.44;5100058;28;20456;-83
2022/12/02 10:54:31;;;;;;;33.85;19.25;;;;;;;4.59;73.82;100505.34;5098205;28;20122;-85
2022/12/02 10:56:58;;;;;;;32.80;19.80;;;;;;;4.63;73.89;100512.84;5100229;28;20427;-85
2022/12/02 10:59:24;;;;;;;31.00;17.55;;;;;;;4.64;73.65;100505.56;5101438;28;20094;-84
2022/12/02 11:01:49;;;;;;;31.20;16.60;;;;;;;4.84;72.61;100507.44;5098509;28;20032;-83
2022/12/02 11:04:15;;;;;;;31.83;15.60;;;;;;;4.77;72.70;100508.28;5097298;28;20384;-86
2022/12/02 11:06:42;;;;;;;24.88;14.55;;;;;;;4.73;73.60;100509.72;5098448;28;20015;-91
2022/12/02 11:09:15;;;;;;;35.03;16.92;;;;;;;4.54;73.73;100512.19;5099343;28;20039;-85
2022/12/02 11:11:40;;;;;;;27.70;17.92;;;;;;;4.46;73.67;100498.91;5101031;28;20051;-84
2022/12/02 11:14:11;;;;;;;25.88;15.40;;;;;;;4.71;73.11;100503.69;5099035;28;20460;-85
2022/12/02 11:16:36;;;;;;;31.95;15.90;;;;;;;4.71;72.95;100494.75;5098308;28;20520;-83
2022/12/02 11:19:07;;;;;;;36.23;17.43;;;;;;;4.62;72.40;100502.22;5099803;28;20020;-85
2022/12/02 11:21:39;;;;;;;29.85;18.73;;;;;;;4.70;72.47;100499.31;5098252;28;20260;-84